Time;durP1;ratioP1;P1;durP2;ratioP2;P2;SDS_P1;SDS_P2;PMS_P1;PMS_P2;Temp;Humidity;BMP_temperature;BMP_pressure;BME280_temperature;BME280_humidity;BME280_pressure;Samples;Min_cycle;Max_cycle;Signal;HPM_P1;HPM_P2
2023/03/18 00:01:06;;;;;;;1.48;0.80;;;23.30;49.70;;;;;;5072295;28;20665;-61
2023/03/18 00:03:38;;;;;;;2.08;0.85;;;23.40;49.70;;;;;;5070454;28;20277;-61
2023/03/18 00:06:10;;;;;;;1.77;0.90;;;23.40;49.70;;;;;;5071239;28;20254;-62
2023/03/18 00:08:44;;;;;;;1.55;0.73;;;23.40;49.60;;;;;;5070817;28;20194;-62
2023/03/18 00:11:15;;;;;;;2.38;1.00;;;23.40;49.40;;;;;;5072456;28;20643;-62
2023/03/18 00:13:46;;;;;;;1.23;0.88;;;23.40;49.90;;;;;;5071539;28;20635;-62
2023/03/18 00:16:18;;;;;;;3.28;0.82;;;23.50;49.30;;;;;;5071612;28;20250;-62
2023/03/18 00:18:51;;;;;;;2.70;1.02;;;23.50;49.20;;;;;;5071181;28;20202;-62
2023/03/18 00:21:22;;;;;;;3.65;1.20;;;23.50;49.10;;;;;;5071124;28;20198;-62
2023/03/18 00:23:55;;;;;;;3.10;0.90;;;23.50;49.10;;;;;;5071089;28;20230;-62
2023/03/18 00:26:27;;;;;;;3.47;1.20;;;23.60;49.10;;;;;;5070823;28;20451;-62
2023/03/18 00:28:59;;;;;;;2.28;0.82;;;23.60;49.10;;;;;;5071365;28;20209;-62
2023/03/18 00:31:30;;;;;;;1.77;0.80;;;23.60;49.00;;;;;;5072017;28;20274;-62
2023/03/18 00:34:01;;;;;;;2.70;0.77;;;23.60;48.90;;;;;;5071752;28;20261;-62
2023/03/18 00:36:32;;;;;;;3.38;1.05;;;23.60;48.80;;;;;;5071664;28;20221;-62
2023/03/18 00:39:04;;;;;;;2.50;1.00;;;23.60;48.70;;;;;;5071667;28;20203;-61
2023/03/18 00:41:35;;;;;;;2.60;0.95;;;23.60;48.50;;;;;;5071766;28;20201;-62
2023/03/18 00:44:07;;;;;;;2.03;0.90;;;23.70;48.50;;;;;;5072149;28;20203;-62
2023/03/18 00:46:39;;;;;;;3.40;1.00;;;23.70;48.30;;;;;;5071522;28;20215;-62
2023/03/18 00:49:10;;;;;;;2.97;1.00;;;23.70;48.20;;;;;;5071088;28;20195;-62
2023/03/18 00:51:41;;;;;;;2.13;1.00;;;23.70;48.20;;;;;;5083603;28;20201;-59
2023/03/18 00:54:16;;;;;;;2.95;1.08;;;23.70;48.20;;;;;;5091759;28;20226;-62
2023/03/18 00:56:47;;;;;;;2.92;1.10;;;23.70;48.10;;;;;;5082209;28;20256;-59
2023/03/18 00:59:18;;;;;;;2.53;1.00;;;23.80;48.00;;;;;;5071283;28;20230;-58
2023/03/18 01:01:49;;;;;;;6.78;1.45;;;23.80;48.00;;;;;;5071356;28;20195;-62
2023/03/18 01:04:20;;;;;;;2.03;0.93;;;23.80;48.10;;;;;;5070255;28;20210;-57
2023/03/18 01:06:51;;;;;;;2.58;1.00;;;23.80;48.10;;;;;;5070281;28;20217;-61
2023/03/18 01:09:23;;;;;;;3.00;1.17;;;23.80;48.10;;;;;;5071020;28;20678;-62
2023/03/18 01:11:54;;;;;;;3.33;1.20;;;23.80;48.00;;;;;;5071211;28;20195;-63
2023/03/18 01:14:25;;;;;;;4.45;1.02;;;23.80;47.80;;;;;;5070629;28;20196;-62
2023/03/18 01:16:55;;;;;;;2.83;1.00;;;23.80;47.80;;;;;;5083555;28;20215;-62
2023/03/18 01:19:26;;;;;;;2.22;1.08;;;23.80;47.60;;;;;;5091575;28;20194;-63
2023/03/18 01:21:57;;;;;;;4.63;1.45;;;23.80;47.60;;;;;;5090731;28;20194;-62
2023/03/18 01:24:29;;;;;;;5.68;1.40;;;23.80;47.50;;;;;;5090762;28;20190;-62
2023/03/18 01:27:00;;;;;;;2.70;1.08;;;23.80;47.50;;;;;;5078359;28;20226;-62
2023/03/18 01:29:30;;;;;;;3.15;1.65;;;23.90;47.60;;;;;;5070282;28;20195;-62
2023/03/18 01:32:01;;;;;;;3.70;1.50;;;23.90;47.60;;;;;;5070833;28;20190;-62
2023/03/18 01:34:32;;;;;;;4.93;1.30;;;23.90;47.50;;;;;;5071018;28;20198;-62
2023/03/18 01:37:02;;;;;;;4.22;1.40;;;23.90;47.60;;;;;;5070643;28;20238;-63
2023/03/18 01:39:35;;;;;;;5.20;1.60;;;24.00;47.60;;;;;;5070766;28;20199;-63
2023/03/18 01:42:06;;;;;;;5.45;1.70;;;24.00;47.50;;;;;;5070352;28;20195;-62
2023/03/18 01:44:37;;;;;;;4.18;1.80;;;24.00;47.30;;;;;;5070925;28;20194;-62
2023/03/18 01:47:09;;;;;;;5.65;1.80;;;24.00;47.30;;;;;;5070571;28;20214;-61
2023/03/18 01:49:44;;;;;;;5.15;1.70;;;24.00;47.30;;;;;;5069971;28;20733;-62
2023/03/18 01:52:18;;;;;;;5.18;1.75;;;24.00;47.50;;;;;;5069988;28;20521;-62
2023/03/18 01:54:55;;;;;;;3.10;1.30;;;24.00;47.30;;;;;;5070507;28;20647;-63
2023/03/18 01:57:26;;;;;;;5.97;1.70;;;24.00;47.30;;;;;;5070807;28;20218;-62
2023/03/18 01:59:58;;;;;;;3.58;1.30;;;24.00;47.30;;;;;;5070555;28;20195;-62
2023/03/18 02:02:29;;;;;;;5.72;1.42;;;24.10;47.30;;;;;;5070327;28;20198;-62
2023/03/18 02:05:08;;;;;;;3.42;1.42;;;24.10;47.20;;;;;;5069957;28;20206;-62
2023/03/18 02:07:40;;;;;;;2.63;1.23;;;24.10;47.20;;;;;;5069143;28;20681;-62
2023/03/18 02:10:16;;;;;;;4.18;1.63;;;24.10;47.10;;;;;;5070520;28;20207;-63
2023/03/18 02:12:48;;;;;;;4.80;1.73;;;24.10;47.00;;;;;;5070590;28;20686;-62
2023/03/18 02:15:22;;;;;;;3.92;1.60;;;24.20;47.10;;;;;;5072346;28;20205;-62
2023/03/18 02:17:58;;;;;;;2.78;1.00;;;24.20;47.00;;;;;;5074440;28;20230;-62
2023/03/18 02:20:41;;;;;;;6.38;1.70;;;24.20;47.50;;;;;;5074292;28;20191;-62
2023/03/18 02:23:23;;;;;;;3.97;1.55;;;24.20;46.70;;;;;;5073611;28;20194;-61
2023/03/18 02:26:02;;;;;;;5.47;1.60;;;24.20;46.50;;;;;;5056121;28;20686;-62
2023/03/18 02:28:38;;;;;;;3.72;1.50;;;24.20;46.60;;;;;;5074018;28;20291;-62
2023/03/18 02:31:13;;;;;;;4.25;1.40;;;24.20;46.60;;;;;;5073997;28;20693;-62
2023/03/18 02:33:44;;;;;;;3.03;1.30;;;24.20;46.50;;;;;;5074042;28;20226;-62
2023/03/18 02:36:19;;;;;;;3.00;1.27;;;24.20;46.60;;;;;;5074147;28;20218;-63
2023/03/18 02:38:50;;;;;;;5.18;1.30;;;24.20;46.60;;;;;;5074142;28;20209;-62
2023/03/18 02:41:23;;;;;;;3.75;1.20;;;24.20;46.60;;;;;;5074134;28;20195;-62
2023/03/18 02:43:56;;;;;;;3.17;1.23;;;24.20;46.60;;;;;;5073994;28;20210;-62
2023/03/18 02:46:37;;;;;;;3.58;1.67;;;24.20;46.60;;;;;;5073006;28;20213;-61
2023/03/18 02:49:09;;;;;;;4.38;1.20;;;24.30;46.60;;;;;;5073585;28;20559;-62
2023/03/18 02:51:40;;;;;;;3.00;1.30;;;24.30;46.50;;;;;;5073559;28;20198;-59
2023/03/18 02:54:13;;;;;;;2.95;1.20;;;24.30;46.60;;;;;;5073507;28;20222;-61
2023/03/18 02:56:45;;;;;;;4.85;1.30;;;24.30;46.60;;;;;;5073767;28;20584;-62
2023/03/18 02:59:17;;;;;;;3.47;1.17;;;24.30;46.40;;;;;;5072389;28;20201;-60
2023/03/18 03:01:49;;;;;;;3.03;1.10;;;24.30;46.30;;;;;;5073581;28;20198;-62
2023/03/18 03:04:22;;;;;;;4.20;1.45;;;24.30;46.30;;;;;;5073207;28;20206;-62
2023/03/18 03:06:55;;;;;;;3.50;1.20;;;24.30;46.30;;;;;;5073524;28;20211;-62
2023/03/18 03:09:26;;;;;;;3.80;1.48;;;24.40;46.40;;;;;;5073750;28;20268;-62
2023/03/18 03:11:56;;;;;;;4.50;1.38;;;24.40;46.40;;;;;;5073751;28;20183;-61
2023/03/18 03:14:29;;;;;;;3.28;0.98;;;24.30;46.30;;;;;;5073536;28;20222;-62
2023/03/18 03:17:00;;;;;;;4.57;1.35;;;24.40;46.40;;;;;;5073271;28;20215;-62
2023/03/18 03:19:31;;;;;;;3.97;1.38;;;24.40;46.40;;;;;;5073121;28;20203;-60
2023/03/18 03:22:01;;;;;;;2.67;0.80;;;24.40;46.40;;;;;;5073127;28;20191;-61
2023/03/18 03:24:32;;;;;;;2.58;1.10;;;24.40;46.40;;;;;;5072717;28;20560;-62
2023/03/18 03:27:03;;;;;;;3.00;0.93;;;24.50;46.50;;;;;;5071891;28;20211;-62
2023/03/18 03:29:35;;;;;;;2.40;1.05;;;24.50;46.50;;;;;;5072725;28;20203;-62
2023/03/18 03:32:06;;;;;;;2.03;1.10;;;24.50;46.50;;;;;;5072967;28;20187;-62
2023/03/18 03:34:37;;;;;;;4.28;1.27;;;24.50;46.50;;;;;;5072073;28;20713;-62
2023/03/18 03:37:08;;;;;;;2.85;1.02;;;24.50;46.40;;;;;;5071956;28;20245;-61
2023/03/18 03:39:39;;;;;;;2.67;1.10;;;24.60;46.40;;;;;;5073013;28;20201;-62
2023/03/18 03:42:10;;;;;;;3.10;1.17;;;24.60;46.30;;;;;;5073046;28;20190;-60
2023/03/18 03:44:42;;;;;;;2.30;1.20;;;24.60;46.20;;;;;;5072923;28;20589;-62
2023/03/18 03:47:13;;;;;;;1.92;0.90;;;24.60;46.20;;;;;;5079726;28;20210;-62
2023/03/18 03:49:44;;;;;;;2.70;1.10;;;24.60;46.20;;;;;;5092803;28;20198;-63
2023/03/18 03:52:17;;;;;;;4.13;1.20;;;24.60;46.20;;;;;;5093083;28;20697;-62
2023/03/18 03:54:47;;;;;;;1.92;1.08;;;24.60;46.80;;;;;;5093246;28;20228;-61
2023/03/18 03:57:18;;;;;;;4.03;1.42;;;24.70;46.30;;;;;;5073587;28;20583;-62
2023/03/18 03:59:51;;;;;;;4.38;1.50;;;24.70;46.40;;;;;;5072585;28;20204;-60
2023/03/18 04:02:22;;;;;;;4.25;1.38;;;24.70;46.40;;;;;;5071920;28;20230;-63
2023/03/18 04:04:53;;;;;;;2.40;1.10;;;24.70;46.40;;;;;;5072250;28;20290;-63
2023/03/18 04:07:24;;;;;;;4.40;1.30;;;24.70;46.40;;;;;;5072461;28;20218;-62
2023/03/18 04:09:55;;;;;;;3.17;1.15;;;24.70;46.50;;;;;;5072825;28;20217;-60
2023/03/18 04:12:25;;;;;;;2.58;1.25;;;24.80;46.50;;;;;;5072061;28;20186;-62
2023/03/18 04:14:58;;;;;;;2.97;1.38;;;24.70;46.40;;;;;;5072516;28;20241;-61
2023/03/18 04:17:28;;;;;;;3.47;1.10;;;24.70;46.30;;;;;;5072371;28;20217;-62
2023/03/18 04:19:59;;;;;;;2.75;1.15;;;24.80;46.40;;;;;;5071818;28;20195;-61
2023/03/18 04:22:30;;;;;;;3.40;1.20;;;24.80;46.30;;;;;;5072470;28;20203;-62
2023/03/18 04:25:01;;;;;;;4.13;1.30;;;24.80;46.30;;;;;;5072282;28;20230;-62
2023/03/18 04:27:33;;;;;;;3.83;1.50;;;24.80;46.20;;;;;;5071705;28;20264;-62
2023/03/18 04:30:05;;;;;;;4.68;1.33;;;24.80;46.20;;;;;;5071985;28;20226;-62
2023/03/18 04:32:36;;;;;;;3.10;1.13;;;24.80;46.30;;;;;;5072000;28;20195;-62
2023/03/18 04:35:08;;;;;;;3.60;1.30;;;24.80;46.30;;;;;;5071496;28;20226;-62
2023/03/18 04:37:38;;;;;;;2.58;1.13;;;24.80;46.30;;;;;;5070737;28;20752;-62
2023/03/18 04:40:10;;;;;;;2.85;1.42;;;24.90;46.40;;;;;;5071610;28;20195;-63
2023/03/18 04:42:41;;;;;;;4.07;1.25;;;24.80;46.20;;;;;;5071903;28;20202;-62
2023/03/18 04:45:14;;;;;;;3.35;1.10;;;24.90;46.30;;;;;;5072287;28;20202;-63
2023/03/18 04:47:45;;;;;;;4.63;1.40;;;24.90;46.20;;;;;;5072676;28;20198;-63
2023/03/18 04:50:17;;;;;;;2.95;1.40;;;24.90;46.30;;;;;;5071913;28;20195;-62
2023/03/18 04:52:47;;;;;;;4.10;1.30;;;24.90;46.80;;;;;;5071493;28;20202;-62
2023/03/18 04:55:20;;;;;;;5.30;1.30;;;24.90;46.20;;;;;;5071335;28;20226;-62
2023/03/18 04:57:50;;;;;;;2.30;1.08;;;24.90;46.20;;;;;;5071626;28;20198;-62
2023/03/18 05:00:25;;;;;;;3.95;1.60;;;24.90;46.20;;;;;;5071242;28;20198;-63
2023/03/18 05:02:56;;;;;;;4.60;1.10;;;24.90;46.20;;;;;;5070815;28;20194;-62
2023/03/18 05:05:27;;;;;;;2.72;1.23;;;25.00;46.30;;;;;;5071154;28;20678;-63
2023/03/18 05:07:57;;;;;;;2.25;1.15;;;25.00;46.20;;;;;;5071545;28;20195;-62
2023/03/18 05:10:28;;;;;;;3.53;1.17;;;24.90;46.20;;;;;;5071747;28;20206;-63
2023/03/18 05:12:59;;;;;;;2.65;1.35;;;25.00;46.30;;;;;;5072027;28;20198;-63
2023/03/18 05:15:32;;;;;;;4.40;1.73;;;25.00;46.30;;;;;;5071670;28;20234;-62
2023/03/18 05:18:03;;;;;;;4.25;1.27;;;25.00;46.30;;;;;;5071419;28;20203;-62
2023/03/18 05:20:34;;;;;;;2.85;1.20;;;24.90;46.30;;;;;;5071123;28;20278;-62
2023/03/18 05:23:05;;;;;;;2.80;1.45;;;25.00;46.40;;;;;;5071025;28;20198;-62
2023/03/18 05:25:36;;;;;;;3.22;1.20;;;25.00;46.40;;;;;;5071135;28;20194;-62
2023/03/18 05:28:06;;;;;;;4.07;1.20;;;25.00;46.40;;;;;;5071100;28;20203;-59
2023/03/18 05:30:39;;;;;;;3.83;1.20;;;25.00;46.40;;;;;;5071175;28;20194;-63
2023/03/18 05:33:10;;;;;;;2.58;1.17;;;25.00;46.30;;;;;;5071013;28;20221;-62
2023/03/18 05:35:41;;;;;;;2.85;1.25;;;25.00;46.40;;;;;;5069970;28;20694;-63
2023/03/18 05:38:11;;;;;;;3.10;1.40;;;25.00;46.20;;;;;;5070535;28;20201;-63
2023/03/18 05:40:42;;;;;;;3.35;1.20;;;25.00;46.20;;;;;;5070932;28;20833;-62
2023/03/18 05:43:13;;;;;;;2.88;1.17;;;25.00;46.20;;;;;;5070463;28;20199;-62
2023/03/18 05:45:46;;;;;;;4.10;1.45;;;25.00;46.20;;;;;;5070728;28;20248;-62
2023/03/18 05:48:16;;;;;;;3.28;1.00;;;25.00;46.20;;;;;;5071082;28;20191;-61
2023/03/18 05:50:47;;;;;;;2.45;1.10;;;25.00;46.20;;;;;;5073577;28;20658;-63
2023/03/18 05:53:18;;;;;;;3.55;1.20;;;25.00;46.20;;;;;;5074323;28;20218;-61
2023/03/18 05:55:49;;;;;;;2.55;1.23;;;25.00;46.20;;;;;;5074288;28;20226;-62
2023/03/18 05:58:20;;;;;;;3.67;1.30;;;24.90;46.20;;;;;;5074285;28;20198;-61
2023/03/18 06:00:52;;;;;;;3.03;1.20;;;25.00;46.30;;;;;;5074662;28;20191;-62
2023/03/18 06:03:23;;;;;;;3.35;1.00;;;24.90;46.30;;;;;;5074843;28;20228;-62
2023/03/18 06:05:57;;;;;;;2.53;1.00;;;24.90;46.30;;;;;;5073905;28;20268;-61
2023/03/18 06:08:28;;;;;;;2.55;1.20;;;24.90;46.40;;;;;;5074215;28;20199;-61
2023/03/18 06:10:58;;;;;;;2.97;0.93;;;24.90;46.40;;;;;;5073963;28;20198;-63
2023/03/18 06:13:29;;;;;;;3.13;0.95;;;24.90;46.40;;;;;;5074333;28;20205;-62
2023/03/18 06:16:03;;;;;;;3.40;0.95;;;24.90;46.40;;;;;;5074158;28;20218;-62
2023/03/18 06:18:34;;;;;;;4.20;1.65;;;24.90;46.30;;;;;;5075056;28;20564;-62
2023/03/18 06:21:05;;;;;;;2.40;0.93;;;24.90;46.30;;;;;;5073753;28;20186;-62
2023/03/18 06:23:36;;;;;;;2.40;1.23;;;24.90;46.40;;;;;;5074236;28;20194;-62
2023/03/18 06:26:07;;;;;;;4.03;1.25;;;24.90;46.40;;;;;;5074528;28;20218;-62
2023/03/18 06:28:38;;;;;;;1.90;0.98;;;24.80;46.30;;;;;;5074502;28;20221;-62
2023/03/18 06:31:11;;;;;;;2.50;1.05;;;24.90;46.40;;;;;;5074589;28;20198;-61
2023/03/18 06:33:42;;;;;;;2.60;0.95;;;24.80;46.40;;;;;;5074501;28;20245;-61
2023/03/18 06:36:15;;;;;;;1.40;0.90;;;24.80;46.40;;;;;;5073904;28;20219;-61
2023/03/18 06:38:46;;;;;;;2.78;1.05;;;24.80;46.40;;;;;;5074014;28;20285;-61
2023/03/18 06:41:16;;;;;;;2.97;1.00;;;24.80;46.50;;;;;;5074317;28;20194;-59
2023/03/18 06:43:49;;;;;;;2.28;1.10;;;24.80;46.50;;;;;;5074413;28;20206;-59
2023/03/18 06:46:22;;;;;;;3.20;1.35;;;24.80;46.50;;;;;;5074147;28;20219;-60
2023/03/18 06:48:53;;;;;;;2.70;0.93;;;24.80;46.60;;;;;;5074840;28;20248;-61
2023/03/18 06:51:24;;;;;;;1.60;0.88;;;24.70;46.60;;;;;;5074081;28;20240;-62
2023/03/18 06:53:55;;;;;;;2.28;1.00;;;24.80;46.70;;;;;;5074691;28;20195;-61
2023/03/18 06:56:26;;;;;;;3.17;1.10;;;24.70;46.60;;;;;;5074368;28;20219;-61
2023/03/18 06:58:57;;;;;;;3.63;1.23;;;24.70;46.60;;;;;;5074120;28;20201;-61
2023/03/18 07:01:31;;;;;;;3.00;1.10;;;24.70;46.60;;;;;;5073790;28;20199;-60
2023/03/18 07:04:02;;;;;;;2.55;0.95;;;24.70;46.60;;;;;;5073798;28;20201;-62
2023/03/18 07:06:33;;;;;;;2.95;1.25;;;24.70;46.60;;;;;;5073464;28;20215;-59
2023/03/18 07:09:07;;;;;;;2.85;1.10;;;24.70;46.60;;;;;;5073569;28;20606;-62
2023/03/18 07:11:38;;;;;;;2.45;0.88;;;24.60;46.50;;;;;;5073781;28;20201;-61
2023/03/18 07:14:09;;;;;;;2.35;1.00;;;24.60;46.60;;;;;;5073500;28;20565;-60
2023/03/18 07:16:41;;;;;;;2.40;1.05;;;24.60;46.60;;;;;;5073427;28;20215;-60
2023/03/18 07:19:12;;;;;;;2.10;1.08;;;24.50;46.60;;;;;;5073344;28;20203;-61
2023/03/18 07:21:43;;;;;;;2.25;1.05;;;24.50;46.60;;;;;;5073182;28;20667;-59
2023/03/18 07:24:13;;;;;;;2.30;1.10;;;24.50;46.70;;;;;;5072910;28;20214;-61
2023/03/18 07:26:44;;;;;;;2.60;1.00;;;24.50;46.70;;;;;;5073161;28;20218;-61
2023/03/18 07:29:15;;;;;;;3.47;1.10;;;24.50;46.70;;;;;;5072663;28;20201;-61
2023/03/18 07:31:48;;;;;;;1.35;0.90;;;24.50;46.80;;;;;;5072956;28;20767;-61
2023/03/18 07:34:20;;;;;;;3.13;1.40;;;24.50;46.80;;;;;;5072215;28;20215;-61
2023/03/18 07:36:50;;;;;;;2.00;1.02;;;24.50;46.80;;;;;;5073001;28;20214;-60
2023/03/18 07:39:21;;;;;;;2.58;0.98;;;24.50;46.80;;;;;;5073319;28;20199;-58
2023/03/18 07:41:52;;;;;;;2.10;1.08;;;24.50;47.40;;;;;;5073049;28;20191;-60
2023/03/18 07:44:23;;;;;;;2.70;1.08;;;24.40;46.70;;;;;;5072749;28;20252;-61
2023/03/18 07:46:55;;;;;;;2.03;0.85;;;24.40;46.70;;;;;;5072909;28;20611;-59
2023/03/18 07:49:28;;;;;;;2.13;0.90;;;24.40;46.70;;;;;;5072805;28;20190;-60
2023/03/18 07:51:59;;;;;;;2.53;1.00;;;24.30;46.60;;;;;;5072484;28;20698;-61
2023/03/18 07:54:30;;;;;;;1.65;0.77;;;24.30;46.60;;;;;;5072706;28;20219;-60
2023/03/18 07:57:00;;;;;;;1.95;1.13;;;24.30;46.60;;;;;;5072776;28;20682;-59
2023/03/18 07:59:31;;;;;;;1.70;0.77;;;24.30;46.70;;;;;;5072965;28;20781;-60
2023/03/18 08:02:04;;;;;;;2.45;1.27;;;24.30;46.80;;;;;;5072733;28;20336;-59
2023/03/18 08:04:34;;;;;;;3.08;1.02;;;24.30;46.80;;;;;;5072478;28;20546;-62
2023/03/18 08:07:05;;;;;;;2.00;1.00;;;24.20;47.40;;;;;;5071987;28;20222;-61
2023/03/18 08:09:36;;;;;;;1.98;1.08;;;24.20;46.90;;;;;;5071783;28;20651;-59
2023/03/18 08:12:07;;;;;;;1.83;1.00;;;24.20;46.80;;;;;;5071745;28;20650;-60
2023/03/18 08:14:38;;;;;;;2.20;0.90;;;24.20;46.80;;;;;;5072056;28;20271;-61
2023/03/18 08:17:11;;;;;;;2.65;1.10;;;24.20;46.80;;;;;;5072204;28;20249;-60
2023/03/18 08:19:42;;;;;;;2.33;1.02;;;24.20;46.80;;;;;;5072208;28;20198;-61
2023/03/18 08:22:13;;;;;;;2.40;1.02;;;24.10;46.80;;;;;;5071828;28;20578;-59
2023/03/18 08:24:44;;;;;;;2.83;1.15;;;24.10;46.70;;;;;;5071922;28;20199;-60
2023/03/18 08:27:15;;;;;;;1.83;0.80;;;24.10;46.80;;;;;;5071614;28;20222;-61
2023/03/18 08:29:45;;;;;;;1.80;0.82;;;24.00;46.80;;;;;;5071336;28;20195;-60
2023/03/18 08:32:18;;;;;;;2.08;0.90;;;24.00;46.80;;;;;;5072134;28;20195;-59
2023/03/18 08:34:49;;;;;;;1.20;0.90;;;24.00;46.80;;;;;;5072072;28;20663;-59
2023/03/18 08:37:19;;;;;;;1.50;0.88;;;24.00;46.80;;;;;;5071842;28;20215;-60
2023/03/18 08:39:50;;;;;;;1.98;0.73;;;24.00;46.90;;;;;;5071767;28;20198;-61
2023/03/18 08:42:21;;;;;;;1.20;0.80;;;23.90;46.80;;;;;;5071845;28;20199;-60
2023/03/18 08:44:53;;;;;;;1.58;0.90;;;23.90;46.80;;;;;;5072241;28;20203;-61
2023/03/18 08:47:32;;;;;;;1.92;0.88;;;23.90;46.90;;;;;;5071635;28;20250;-61
2023/03/18 08:50:04;;;;;;;1.33;0.90;;;23.90;46.90;;;;;;5071566;28;20202;-61
2023/03/18 08:52:36;;;;;;;1.63;0.93;;;23.90;46.90;;;;;;5072023;28;20191;-60
2023/03/18 08:55:08;;;;;;;1.95;0.90;;;23.80;46.90;;;;;;5071429;28;20222;-62
2023/03/18 08:57:39;;;;;;;3.08;1.05;;;23.80;46.90;;;;;;5070192;28;20573;-61
2023/03/18 09:00:11;;;;;;;2.53;1.10;;;23.80;46.90;;;;;;5070607;28;20195;-61
2023/03/18 09:02:43;;;;;;;1.92;0.88;;;23.80;47.00;;;;;;5069732;28;20285;-61
2023/03/18 09:05:14;;;;;;;1.88;1.10;;;23.80;47.00;;;;;;5070857;28;20675;-61
2023/03/18 09:07:45;;;;;;;1.83;0.90;;;23.80;47.00;;;;;;5070993;28;20581;-61
2023/03/18 09:10:17;;;;;;;1.23;0.90;;;23.70;47.00;;;;;;5071052;28;20194;-61
2023/03/18 09:12:48;;;;;;;2.33;0.90;;;23.70;47.00;;;;;;5071610;28;20195;-61
2023/03/18 09:15:20;;;;;;;1.73;0.90;;;23.70;47.00;;;;;;5070741;28;20257;-61
2023/03/18 09:17:52;;;;;;;2.95;0.90;;;23.70;47.00;;;;;;5070255;28;20202;-61
2023/03/18 09:20:23;;;;;;;1.17;0.68;;;23.70;47.10;;;;;;5070869;28;20198;-61
2023/03/18 09:22:54;;;;;;;2.35;0.98;;;23.70;47.10;;;;;;5070741;28;20191;-61
2023/03/18 09:25:25;;;;;;;1.30;0.70;;;23.60;47.10;;;;;;5069674;28;20772;-61
2023/03/18 09:27:56;;;;;;;1.55;0.80;;;23.60;47.10;;;;;;5069948;28;20706;-61
2023/03/18 09:30:27;;;;;;;2.15;1.15;;;23.60;47.10;;;;;;5070058;28;20198;-62
2023/03/18 09:33:00;;;;;;;2.72;1.20;;;23.60;47.10;;;;;;5070148;28;20191;-60
2023/03/18 09:35:31;;;;;;;1.63;1.02;;;23.50;47.10;;;;;;5070282;28;20223;-61
2023/03/18 09:38:02;;;;;;;1.70;0.90;;;23.50;47.10;;;;;;5070572;28;20186;-61
2023/03/18 09:40:35;;;;;;;1.10;0.77;;;23.50;47.10;;;;;;5070680;28;20227;-61
2023/03/18 09:43:21;;;;;;;2.25;0.90;;;23.50;47.20;;;;;;5070287;28;20194;-61
2023/03/18 09:46:03;;;;;;;2.30;0.95;;;23.50;47.20;;;;;;5069885;28;20206;-61
2023/03/18 09:48:56;;;;;;;1.58;0.75;;;23.50;47.20;;;;;;5070616;28;20248;-61
2023/03/18 09:51:36;;;;;;;1.85;1.05;;;23.50;47.20;;;;;;5070642;28;20191;-61
2023/03/18 09:54:13;;;;;;;1.65;0.80;;;23.40;47.20;;;;;;5070616;28;20201;-61
2023/03/18 09:56:46;;;;;;;2.03;0.90;;;23.40;47.20;;;;;;5070085;28;20241;-61
2023/03/18 09:59:23;;;;;;;2.38;0.85;;;23.40;47.30;;;;;;5049894;28;20210;-60
2023/03/18 10:01:56;;;;;;;2.28;1.00;;;23.40;47.30;;;;;;5051252;28;20199;-59
2023/03/18 10:04:31;;;;;;;2.13;0.90;;;23.40;47.30;;;;;;5070202;28;20235;-61
2023/03/18 10:07:08;;;;;;;2.13;0.90;;;23.40;47.30;;;;;;5070417;28;20237;-60
2023/03/18 10:09:41;;;;;;;2.10;1.00;;;23.40;47.30;;;;;;5070373;28;20195;-61
2023/03/18 10:12:18;;;;;;;1.58;0.95;;;23.30;47.30;;;;;;5070409;28;20190;-61
2023/03/18 10:14:51;;;;;;;1.27;0.80;;;23.30;47.30;;;;;;5070419;28;20205;-61
2023/03/18 10:17:24;;;;;;;1.77;0.90;;;23.30;47.30;;;;;;5070930;28;20211;-61
2023/03/18 10:19:59;;;;;;;1.42;0.70;;;23.30;47.30;;;;;;5070267;28;20199;-61
2023/03/18 10:23:04;;;;;;;1.55;0.93;;;23.30;47.40;;;;;;5070650;28;20197;-59
2023/03/18 10:25:39;;;;;;;1.73;0.82;;;23.20;47.40;;;;;;5066068;28;20198;-61
2023/03/18 10:28:38;;;;;;;1.70;0.85;;;23.20;47.30;;;;;;5064913;28;20198;-61
2023/03/18 10:31:20;;;;;;;2.22;0.98;;;23.20;47.40;;;;;;5070516;28;20222;-61
2023/03/18 10:33:58;;;;;;;1.88;1.00;;;23.20;47.40;;;;;;5070255;28;20195;-61
2023/03/18 10:36:39;;;;;;;2.03;0.90;;;23.10;47.40;;;;;;5072068;28;20230;-60
2023/03/18 10:39:16;;;;;;;1.83;0.93;;;23.10;47.40;;;;;;5073442;28;20225;-60
2023/03/18 10:41:50;;;;;;;1.27;0.77;;;23.10;47.40;;;;;;5073687;28;20205;-60
2023/03/18 10:44:25;;;;;;;1.25;0.80;;;23.10;48.10;;;;;;5073907;28;20194;-61
2023/03/18 10:47:01;;;;;;;2.90;1.10;;;23.10;47.50;;;;;;5074092;28;20219;-60
2023/03/18 10:49:35;;;;;;;1.60;0.90;;;23.00;47.40;;;;;;5073037;28;20260;-60
2023/03/18 10:52:17;;;;;;;1.13;0.82;;;23.00;47.50;;;;;;5073004;28;20198;-59
2023/03/18 10:54:51;;;;;;;2.13;0.90;;;23.10;47.50;;;;;;5071684;28;20270;-59
2023/03/18 10:57:22;;;;;;;1.52;0.90;;;23.00;47.50;;;;;;5070265;28;20736;-58
2023/03/18 10:59:54;;;;;;;2.58;1.00;;;23.00;47.50;;;;;;5072695;28;20183;-59
2023/03/18 11:02:32;;;;;;;2.00;0.90;;;23.00;47.50;;;;;;5072918;28;20187;-59
2023/03/18 11:05:06;;;;;;;1.50;0.85;;;23.00;47.60;;;;;;5066498;28;20687;-60
2023/03/18 11:07:58;;;;;;;2.15;0.80;;;22.90;47.50;;;;;;5070045;28;20214;-59
2023/03/18 11:10:31;;;;;;;3.80;1.02;;;22.90;47.60;;;;;;5072489;28;20238;-58
2023/03/18 11:13:03;;;;;;;2.13;0.90;;;22.90;47.60;;;;;;5073315;28;20272;-59
2023/03/18 11:15:39;;;;;;;1.92;0.88;;;22.90;47.60;;;;;;5073329;28;20250;-60
2023/03/18 11:18:17;;;;;;;2.10;0.85;;;22.90;47.60;;;;;;5073350;28;20195;-59
2023/03/18 11:20:54;;;;;;;1.73;0.93;;;22.90;47.70;;;;;;5073591;28;20553;-59
2023/03/18 11:23:45;;;;;;;1.80;0.82;;;22.80;47.70;;;;;;5073303;28;20244;-60
2023/03/18 11:26:23;;;;;;;2.30;1.08;;;22.80;47.70;;;;;;5073208;28;20226;-59
2023/03/18 11:28:58;;;;;;;2.15;0.95;;;22.80;47.70;;;;;;5073146;28;20194;-59
2023/03/18 11:31:28;;;;;;;1.65;0.88;;;22.80;47.70;;;;;;5072899;28;20234;-59
2023/03/18 11:34:01;;;;;;;1.40;1.10;;;22.80;47.70;;;;;;5072831;28;20195;-60
2023/03/18 11:36:31;;;;;;;1.95;0.90;;;22.80;48.40;;;;;;5073181;28;20230;-60
2023/03/18 11:39:06;;;;;;;2.45;1.20;;;22.80;47.80;;;;;;5072647;28;20199;-59
2023/03/18 11:41:41;;;;;;;1.88;0.88;;;22.70;47.70;;;;;;5070955;28;20187;-59
2023/03/18 11:44:20;;;;;;;1.23;0.80;;;22.70;47.80;;;;;;5073062;28;20199;-60
2023/03/18 11:46:54;;;;;;;1.98;0.93;;;22.70;47.80;;;;;;5072474;28;20219;-59
2023/03/18 11:49:27;;;;;;;1.23;0.77;;;22.70;47.80;;;;;;5073165;28;20658;-59
2023/03/18 11:52:08;;;;;;;1.23;0.68;;;22.60;47.80;;;;;;5072965;28;20202;-59
2023/03/18 11:54:58;;;;;;;1.77;0.95;;;22.60;47.80;;;;;;5072779;28;20190;-59
2023/03/18 11:57:39;;;;;;;1.42;0.80;;;22.60;47.80;;;;;;5073051;28;20266;-60
2023/03/18 12:00:26;;;;;;;1.38;0.80;;;22.60;47.80;;;;;;5072123;28;20206;-60
2023/03/18 12:03:23;;;;;;;1.40;0.98;;;22.60;47.90;;;;;;5073075;28;20205;-60
2023/03/18 12:06:10;;;;;;;2.35;0.70;;;22.60;47.90;;;;;;5072686;28;20215;-58
2023/03/18 12:08:51;;;;;;;1.38;0.70;;;22.60;47.90;;;;;;5072780;28;20214;-60
2023/03/18 12:11:47;;;;;;;1.67;0.80;;;22.50;47.90;;;;;;5072553;28;20195;-60
2023/03/18 12:14:24;;;;;;;1.50;0.85;;;22.50;47.90;;;;;;5072437;28;20255;-59
2023/03/18 12:17:06;;;;;;;1.45;0.80;;;22.50;47.90;;;;;;5071892;28;20279;-60
2023/03/18 12:19:58;;;;;;;1.88;0.65;;;22.50;47.90;;;;;;5072552;28;20199;-60
2023/03/18 12:22:49;;;;;;;1.02;0.70;;;22.50;47.90;;;;;;5072071;28;20195;-59
2023/03/18 12:25:33;;;;;;;2.97;1.10;;;22.50;47.90;;;;;;5071951;28;20198;-59
2023/03/18 12:28:16;;;;;;;1.65;0.80;;;22.40;47.90;;;;;;5071929;28;20199;-60
2023/03/18 12:31:07;;;;;;;1.58;0.70;;;22.40;47.90;;;;;;5071844;28;20655;-59
2023/03/18 12:33:53;;;;;;;1.40;0.80;;;22.40;48.00;;;;;;5071765;28;20203;-59
2023/03/18 12:36:36;;;;;;;1.45;0.70;;;22.40;48.00;;;;;;5071382;28;20230;-59
2023/03/18 12:39:30;;;;;;;1.40;0.57;;;22.30;48.00;;;;;;5071701;28;20206;-60
2023/03/18 12:42:05;;;;;;;1.33;0.82;;;22.30;48.00;;;;;;5071221;28;20183;-59
2023/03/18 12:44:51;;;;;;;1.38;0.85;;;22.30;48.00;;;;;;5071657;28;20199;-60
2023/03/18 12:47:25;;;;;;;1.48;0.85;;;22.30;48.00;;;;;;5071371;28;20225;-60
2023/03/18 12:49:59;;;;;;;2.22;0.82;;;22.20;48.00;;;;;;5071381;28;20206;-60
2023/03/18 12:52:37;;;;;;;1.40;0.77;;;22.30;48.00;;;;;;5071649;28;20230;-60
2023/03/18 12:55:13;;;;;;;1.13;0.65;;;22.20;48.00;;;;;;5072057;28;20920;-60
2023/03/18 12:57:48;;;;;;;1.52;0.85;;;22.20;48.00;;;;;;5071866;28;20292;-60
2023/03/18 13:00:29;;;;;;;3.45;1.08;;;22.20;48.00;;;;;;5071294;28;20190;-59
2023/03/18 13:03:04;;;;;;;1.23;0.80;;;22.20;48.10;;;;;;5070850;28;20659;-60
2023/03/18 13:05:44;;;;;;;1.10;0.73;;;22.20;48.10;;;;;;5071072;28;20291;-60
2023/03/18 13:08:47;;;;;;;1.23;0.77;;;22.20;48.10;;;;;;5071628;28;20274;-61
2023/03/18 13:11:38;;;;;;;1.85;1.00;;;22.20;48.10;;;;;;5071136;28;20698;-60
2023/03/18 13:14:15;;;;;;;1.67;0.70;;;22.10;48.10;;;;;;5071469;28;20202;-60
2023/03/18 13:16:49;;;;;;;1.25;0.70;;;22.10;48.10;;;;;;5071375;28;20226;-60
2023/03/18 13:19:20;;;;;;;2.38;0.80;;;22.10;48.10;;;;;;5071463;28;20658;-60
2023/03/18 13:21:55;;;;;;;1.58;0.93;;;22.10;48.10;;;;;;5071249;28;20199;-60